Paranagua Express — A8HQ7 — position and weather

sailwx.info

Track history (hours):
 
Tides and Currents Weather Stations Pressure Air Temp Water Temp Dewpoint Dewpoint Depression Visibility Wind Speed Wind Dir Waves Ship Positions

Paranagua Express

Last reported at 2018-Jan-12 14:58 UTC. Time now 2018-Jan-20 23:13 UTC.
Position N 36°06' W 004°55'.
Warning: this ship's position is 8 days out of date.

Length 209 m; draft 7 m.

Type: Cargo ship. MMSI: 636090930.

Date/timePositionNaut miles runAvg speedWind from/ knotsBaromVisibWave heightAir tempDewpointWater temp
2018-Jan-12 14:58N 36°06' W 004°55'715.9
2018-Jan-12 14:30N 36°07' W 004°46'916.5
2018-Jan-12 13:59N 36°08' W 004°35'17516.5
2018-Jan-12 03:20N 37°09' W 001°10'412.3
2018-Jan-12 03:00N 37°12' W 001°06'612.2
2018-Jan-12 02:30N 37°16' W 001°00'612.1
2018-Jan-12 02:00N 37°20' W 000°55'611.8
2018-Jan-12 01:30N 37°23' W 000°49'612.1
2018-Jan-12 00:59N 37°28' W 000°43'711.8
2018-Jan-12 00:23N 37°32' W 000°36'511.7
2018-Jan-12 00:00N 37°36' W 000°32'711.8
2018-Jan-11 23:22N 37°42' W 000°27'2212.2
2018-Jan-11 21:35N 37°60' W 000°12'4 0.1
2018-Jan-09 20:32N 38°01' W 000°07'1212.6
2018-Jan-09 19:35N 37°51' W 000°16'112.5
2018-Jan-09 19:30N 37°50' W 000°17'612.5
2018-Jan-09 19:00N 37°45' W 000°21'612.5
2018-Jan-09 18:30N 37°40' W 000°26'612.6
2018-Jan-09 18:00N 37°34' W 000°30'1012.1
2018-Jan-09 17:12N 37°28' W 000°39'212.1
2018-Jan-09 17:00N 37°26' W 000°41'612.0
2018-Jan-09 16:30N 37°22' W 000°47'611.8
2018-Jan-09 15:59N 37°18' W 000°53'611.7
2018-Jan-09 15:26N 37°14' W 000°59'611.7
2018-Jan-09 14:53N 37°09' W 001°05'16411.8
2018-Jan-09 01:01N 36°07' W 004°14'013.6
2018-Jan-09 01:00N 36°07' W 004°14'713.2
2018-Jan-09 00:30N 36°07' W 004°22'713.2
2018-Jan-09 00:00N 36°06' W 004°30'713.3
2018-Jan-08 23:30N 36°05' W 004°38'612.9
2018-Jan-08 23:00N 36°04' W 004°46'612.4
2018-Jan-08 22:30N 36°03' W 004°54'612.5
2018-Jan-08 22:00N 36°02' W 005°02'712.6
2018-Jan-08 21:29N 36°01' W 005°09'613.1
2018-Jan-08 21:00N 36°00' W 005°17'612.7
2018-Jan-08 20:30N 35°58' W 005°25'10 0.3
2018-Jan-07 12:01N 35°58' W 005°37'0 8.4
2018-Jan-07 12:00N 35°58' W 005°37'4 7.6
2018-Jan-07 11:30N 35°59' W 005°32'3 6.9
2018-Jan-07 11:00N 35°60' W 005°28'3 6.5
2018-Jan-07 10:30N 36°01' W 005°24'3 7.0
2018-Jan-07 10:00N 36°01' W 005°20'4 8.5
2018-Jan-07 09:30N 36°02' W 005°15'5 9.2
2018-Jan-07 09:00N 36°03' W 005°09'210 8.2
2018-Jan-06 07:35N 37°14' W 001°03'110.8
2018-Jan-06 07:28N 37°15' W 001°02'713.5
2018-Jan-06 06:59N 37°19' W 000°56'510.3
2018-Jan-06 06:30N 37°23' W 000°52'510.1
2018-Jan-06 06:00N 37°26' W 000°47'5 9.8
2018-Jan-06 05:30N 37°29' W 000°42'5 9.9
2018-Jan-06 04:56N 37°33' W 000°36'4 9.7
2018-Jan-06 04:30N 37°36' W 000°33'5 9.4
2018-Jan-06 04:00N 37°40' W 000°29'5 9.5
2018-Jan-06 03:30N 37°43' W 000°26'210 5.4
2018-Jan-04 12:20N 40°47' E 001°44'413.0
2018-Jan-04 12:00N 40°51' E 001°47'1010.1
2018-Jan-04 11:03N 40°59' E 001°55'1 8.5
2018-Jan-04 10:59N 40°59' E 001°55'4 8.6
2018-Jan-04 10:29N 41°03' E 001°58'18 1.1
2018-Jan-03 17:27N 41°19' E 002°09'4 6.5
2018-Jan-03 16:52N 41°15' E 002°11'2 5.8
2018-Jan-03 16:31N 41°14' E 002°10'815.6
2018-Jan-03 16:00N 41°07' E 002°05'816.7
2018-Jan-03 15:30N 40°59' E 001°60'917.5
2018-Jan-03 15:00N 40°52' E 001°54'19317.5
2018-Jan-03 04:00N 38°03' W 000°06'1117.7
2018-Jan-03 03:21N 37°53' W 000°14'618.1
2018-Jan-03 03:00N 37°48' W 000°19'917.9
2018-Jan-03 02:30N 37°40' W 000°25'917.7
2018-Jan-03 02:00N 37°33' W 000°31'917.4
2018-Jan-03 01:30N 37°27' W 000°39'917.2
2018-Jan-03 01:00N 37°21' W 000°47'916.8
2018-Jan-03 00:27N 37°15' W 000°55'816.9
2018-Jan-03 00:00N 37°09' W 001°02'  
Track history (hours):
 
Tides and Currents Weather Stations Pressure Air Temp Water Temp Dewpoint Dewpoint Depression Visibility Wind Speed Wind Dir Waves Ship Positions

Paranagua Express

Last reported at 2018-Jan-12 14:58 UTC. Time now 2018-Jan-20 23:13 UTC.
Position N 36°06' W 004°55'.
Warning: this ship's position is 8 days out of date.

Length 209 m; draft 7 m.

Type: Cargo ship. MMSI: 636090930.

Date/timePositionNaut miles runAvg speedWind from/ knotsBaromVisibWave heightAir tempDewpointWater temp
2018-Jan-12 14:58N 36°06' W 004°55'715.9
2018-Jan-12 14:30N 36°07' W 004°46'916.5
2018-Jan-12 13:59N 36°08' W 004°35'17516.5
2018-Jan-12 03:20N 37°09' W 001°10'412.3
2018-Jan-12 03:00N 37°12' W 001°06'612.2
2018-Jan-12 02:30N 37°16' W 001°00'612.1
2018-Jan-12 02:00N 37°20' W 000°55'611.8
2018-Jan-12 01:30N 37°23' W 000°49'612.1
2018-Jan-12 00:59N 37°28' W 000°43'711.8
2018-Jan-12 00:23N 37°32' W 000°36'511.7
2018-Jan-12 00:00N 37°36' W 000°32'711.8
2018-Jan-11 23:22N 37°42' W 000°27'2212.2
2018-Jan-11 21:35N 37°60' W 000°12'4 0.1
2018-Jan-09 20:32N 38°01' W 000°07'1212.6
2018-Jan-09 19:35N 37°51' W 000°16'112.5
2018-Jan-09 19:30N 37°50' W 000°17'612.5
2018-Jan-09 19:00N 37°45' W 000°21'612.5
2018-Jan-09 18:30N 37°40' W 000°26'612.6
2018-Jan-09 18:00N 37°34' W 000°30'1012.1
2018-Jan-09 17:12N 37°28' W 000°39'212.1
2018-Jan-09 17:00N 37°26' W 000°41'612.0
2018-Jan-09 16:30N 37°22' W 000°47'611.8
2018-Jan-09 15:59N 37°18' W 000°53'611.7
2018-Jan-09 15:26N 37°14' W 000°59'611.7
2018-Jan-09 14:53N 37°09' W 001°05'16411.8
2018-Jan-09 01:01N 36°07' W 004°14'013.6
2018-Jan-09 01:00N 36°07' W 004°14'713.2
2018-Jan-09 00:30N 36°07' W 004°22'713.2
2018-Jan-09 00:00N 36°06' W 004°30'713.3
2018-Jan-08 23:30N 36°05' W 004°38'612.9
2018-Jan-08 23:00N 36°04' W 004°46'612.4
2018-Jan-08 22:30N 36°03' W 004°54'612.5
2018-Jan-08 22:00N 36°02' W 005°02'712.6
2018-Jan-08 21:29N 36°01' W 005°09'613.1
2018-Jan-08 21:00N 36°00' W 005°17'612.7
2018-Jan-08 20:30N 35°58' W 005°25'10 0.3
2018-Jan-07 12:01N 35°58' W 005°37'0 8.4
2018-Jan-07 12:00N 35°58' W 005°37'4 7.6
2018-Jan-07 11:30N 35°59' W 005°32'3 6.9
2018-Jan-07 11:00N 35°60' W 005°28'3 6.5
2018-Jan-07 10:30N 36°01' W 005°24'3 7.0
2018-Jan-07 10:00N 36°01' W 005°20'4 8.5
2018-Jan-07 09:30N 36°02' W 005°15'5 9.2
2018-Jan-07 09:00N 36°03' W 005°09'210 8.2
2018-Jan-06 07:35N 37°14' W 001°03'110.8
2018-Jan-06 07:28N 37°15' W 001°02'713.5
2018-Jan-06 06:59N 37°19' W 000°56'510.3
2018-Jan-06 06:30N 37°23' W 000°52'510.1
2018-Jan-06 06:00N 37°26' W 000°47'5 9.8
2018-Jan-06 05:30N 37°29' W 000°42'5 9.9
2018-Jan-06 04:56N 37°33' W 000°36'4 9.7
2018-Jan-06 04:30N 37°36' W 000°33'5 9.4
2018-Jan-06 04:00N 37°40' W 000°29'5 9.5
2018-Jan-06 03:30N 37°43' W 000°26'210 5.4
2018-Jan-04 12:20N 40°47' E 001°44'413.0
2018-Jan-04 12:00N 40°51' E 001°47'1010.1
2018-Jan-04 11:03N 40°59' E 001°55'1 8.5
2018-Jan-04 10:59N 40°59' E 001°55'4 8.6
2018-Jan-04 10:29N 41°03' E 001°58'18 1.1
2018-Jan-03 17:27N 41°19' E 002°09'4 6.5
2018-Jan-03 16:52N 41°15' E 002°11'2 5.8
2018-Jan-03 16:31N 41°14' E 002°10'815.6
2018-Jan-03 16:00N 41°07' E 002°05'816.7
2018-Jan-03 15:30N 40°59' E 001°60'917.5
2018-Jan-03 15:00N 40°52' E 001°54'19317.5
2018-Jan-03 04:00N 38°03' W 000°06'1117.7
2018-Jan-03 03:21N 37°53' W 000°14'618.1
2018-Jan-03 03:00N 37°48' W 000°19'917.9
2018-Jan-03 02:30N 37°40' W 000°25'917.7
2018-Jan-03 02:00N 37°33' W 000°31'917.4
2018-Jan-03 01:30N 37°27' W 000°39'917.2
2018-Jan-03 01:00N 37°21' W 000°47'916.8
2018-Jan-03 00:27N 37°15' W 000°55'816.9
2018-Jan-03 00:00N 37°09' W 001°02'  

Dump ship's entire track history